createdAt,value
2024-04-07T00:02:10.430Z,1.11
2024-04-07T00:04:44.457Z,0.95
2024-04-07T00:07:23.465Z,1.06
2024-04-07T00:09:58.360Z,1.24
2024-04-07T00:12:39.509Z,1.08
2024-04-07T00:15:14.652Z,0.89
2024-04-07T00:17:59.126Z,0.95
2024-04-07T00:20:33.100Z,0.98
2024-04-07T00:23:12.186Z,1.08
2024-04-07T00:25:46.226Z,1.03
2024-04-07T00:28:25.118Z,1.05
2024-04-07T00:30:59.234Z,1.05
2024-04-07T00:33:42.880Z,1.01
2024-04-07T00:36:17.033Z,1.07
2024-04-07T00:38:55.806Z,1.31
2024-04-07T00:41:31.211Z,1.14
2024-04-07T00:44:10.086Z,1.12
2024-04-07T00:46:44.791Z,1.03
2024-04-07T00:49:28.601Z,1.20
2024-04-07T00:52:03.068Z,1.08
2024-04-07T00:54:43.536Z,0.94
2024-04-07T00:57:18.041Z,1.16
2024-04-07T00:59:57.150Z,1.07
2024-04-07T01:02:32.602Z,1.06
2024-04-07T01:05:16.441Z,1.06
2024-04-07T01:07:51.183Z,1.06
2024-04-07T01:10:29.995Z,0.91
2024-04-07T01:13:04.884Z,0.98
2024-04-07T01:15:44.880Z,1.00
2024-04-07T01:18:18.841Z,1.12
2024-04-07T01:21:02.515Z,1.06
2024-04-07T01:23:41.646Z,1.09
2024-04-07T01:26:20.498Z,1.07
2024-04-07T01:28:54.540Z,1.09
2024-04-07T01:31:33.680Z,1.04
2024-04-07T01:34:07.687Z,1.09
2024-04-07T01:36:47.136Z,1.18
2024-04-07T01:39:26.030Z,1.20
2024-04-07T01:42:05.184Z,1.04
2024-04-07T01:44:39.190Z,1.15
2024-04-07T01:47:18.105Z,1.12
2024-04-07T01:49:53.109Z,1.26
2024-04-07T01:52:32.320Z,1.14
2024-04-07T01:55:11.368Z,1.19
2024-04-07T01:57:50.202Z,1.25
2024-04-07T02:00:24.468Z,1.35
2024-04-07T02:03:03.406Z,1.22
2024-04-07T02:05:37.611Z,1.38
2024-04-07T02:08:17.208Z,1.30
2024-04-07T02:10:56.448Z,1.42
2024-04-07T02:13:35.242Z,1.39
2024-04-07T02:16:09.460Z,1.37
2024-04-07T02:18:49.118Z,1.21
2024-04-07T02:21:23.196Z,1.23
2024-04-07T02:24:02.016Z,1.22
2024-04-07T02:26:40.853Z,1.32
2024-04-07T02:29:19.669Z,1.29
2024-04-07T02:31:53.664Z,1.24
2024-04-07T02:34:32.519Z,1.23
2024-04-07T02:37:06.969Z,1.48
2024-04-07T02:39:45.882Z,1.29
2024-04-07T02:42:24.712Z,1.23
2024-04-07T02:45:14.440Z,1.19
2024-04-07T02:48:04.181Z,1.11
2024-04-07T02:50:43.743Z,1.16
2024-04-07T02:53:17.715Z,1.26
2024-04-07T02:55:56.580Z,1.21
2024-04-07T02:58:35.444Z,1.02
2024-04-07T03:01:14.979Z,1.09
2024-04-07T03:03:48.964Z,1.11
2024-04-07T03:06:27.903Z,1.21
2024-04-07T03:09:01.999Z,1.03
2024-04-07T03:11:40.895Z,1.04
2024-04-07T03:14:19.744Z,1.14
2024-04-07T03:17:01.456Z,1.10
2024-04-07T03:19:35.557Z,1.10
2024-04-07T03:22:14.405Z,1.02
2024-04-07T03:24:48.364Z,1.23
2024-04-07T03:27:27.185Z,0.95
2024-04-07T03:30:07.001Z,1.04
2024-04-07T03:32:45.797Z,1.11
2024-04-07T03:35:19.895Z,1.00
2024-04-07T03:37:58.761Z,0.94
2024-04-07T03:40:37.647Z,1.08
2024-04-07T03:43:18.398Z,1.09
2024-04-07T03:46:06.903Z,0.99
2024-04-07T03:48:45.683Z,0.94
2024-04-07T03:51:24.527Z,1.14
2024-04-07T03:53:58.525Z,1.00
2024-04-07T03:56:37.401Z,1.14
2024-04-07T03:59:11.396Z,0.99
2024-04-07T04:01:55.045Z,1.07
2024-04-07T04:04:29.086Z,1.04
2024-04-07T04:07:07.886Z,1.10
2024-04-07T04:09:41.892Z,0.92
2024-04-07T04:12:20.698Z,1.06
2024-04-07T04:14:55.954Z,0.99
2024-04-07T04:17:39.612Z,0.98
2024-04-07T04:20:13.632Z,1.09
2024-04-07T04:22:52.523Z,1.01
2024-04-07T04:25:27.639Z,1.04
2024-04-07T04:28:06.580Z,1.02
2024-04-07T04:30:40.688Z,1.32
2024-04-07T04:33:24.342Z,1.17
2024-04-07T04:35:58.441Z,1.26
2024-04-07T04:38:37.228Z,1.01
2024-04-07T04:41:11.435Z,1.14
2024-04-07T04:43:50.323Z,1.05
2024-04-07T04:46:24.374Z,0.98
2024-04-07T04:49:08.081Z,1.03
2024-04-07T04:51:42.227Z,1.04
2024-04-07T04:54:21.091Z,1.00
2024-04-07T04:56:55.134Z,0.97
2024-04-07T04:59:33.957Z,1.01
2024-04-07T05:02:07.958Z,1.16
2024-04-07T05:04:52.262Z,1.01
2024-04-07T05:07:26.273Z,1.12
2024-04-07T05:10:05.573Z,1.03
2024-04-07T05:12:39.859Z,1.08
2024-04-07T05:15:18.850Z,1.34
2024-04-07T05:17:57.681Z,1.22
2024-04-07T05:20:38.478Z,1.22
2024-04-07T05:23:17.484Z,1.08
2024-04-07T05:25:51.574Z,0.94
2024-04-07T05:28:31.571Z,0.96
2024-04-07T05:31:07.107Z,1.15
2024-04-07T05:33:46.174Z,1.15
2024-04-07T05:36:24.989Z,1.06
2024-04-07T05:39:03.847Z,1.04
2024-04-07T05:41:37.819Z,1.24
2024-04-07T05:44:16.687Z,1.08
2024-04-07T05:46:50.671Z,1.18
2024-04-07T05:49:29.628Z,1.30
2024-04-07T05:52:09.732Z,1.21
2024-04-07T05:54:48.582Z,0.93
2024-04-07T05:57:22.558Z,0.99
2024-04-07T06:00:01.450Z,1.02
2024-04-07T06:02:35.440Z,1.04
2024-04-07T06:05:14.430Z,1.10
2024-04-07T06:07:53.318Z,1.13
2024-04-07T06:10:32.142Z,0.96
2024-04-07T06:13:07.081Z,1.03
2024-04-07T06:15:45.932Z,1.36
2024-04-07T06:18:19.904Z,1.22
2024-04-07T06:20:59.852Z,1.02
2024-04-07T06:23:38.720Z,1.27
2024-04-07T06:26:17.522Z,1.17
2024-04-07T06:28:51.581Z,1.28
2024-04-07T06:31:30.506Z,1.42
2024-04-07T06:34:10.107Z,1.16
2024-04-07T06:36:44.101Z,1.35
2024-04-07T06:39:28.083Z,1.28
2024-04-07T06:42:02.063Z,1.14
2024-04-07T06:44:40.891Z,1.11
2024-04-07T06:47:14.969Z,1.12
2024-04-07T06:49:56.489Z,1.14
2024-04-07T06:52:30.495Z,1.14
2024-04-07T06:55:14.376Z,1.24
2024-04-07T06:57:49.034Z,1.06
2024-04-07T07:00:28.752Z,1.05
2024-04-07T07:03:02.946Z,1.03
2024-04-07T07:05:41.873Z,1.06
2024-04-07T07:08:16.012Z,1.20
2024-04-07T07:11:08.032Z,1.21
2024-04-07T07:13:44.783Z,1.17
2024-04-07T07:16:23.668Z,1.35
2024-04-07T07:18:57.723Z,1.55
2024-04-07T07:21:36.560Z,1.16
2024-04-07T07:24:10.658Z,1.21
2024-04-07T07:26:54.328Z,1.18
2024-04-07T07:29:28.296Z,1.12
2024-04-07T07:32:08.639Z,1.14
2024-04-07T07:34:42.596Z,1.17
2024-04-07T07:37:21.393Z,1.11
2024-04-07T07:39:55.381Z,0.99
2024-04-07T07:42:40.054Z,0.92
2024-04-07T07:45:14.170Z,1.01
2024-04-07T07:47:52.997Z,1.09
2024-04-07T07:50:27.059Z,0.95
2024-04-07T07:53:05.927Z,0.94
2024-04-07T07:55:40.433Z,0.93
2024-04-07T07:58:24.138Z,1.06
2024-04-07T08:00:58.114Z,0.84
2024-04-07T08:03:37.303Z,0.87
2024-04-07T08:06:11.372Z,0.81
2024-04-07T08:08:50.217Z,0.73
2024-04-07T08:11:24.184Z,0.90
2024-04-07T08:14:07.885Z,0.73
2024-04-07T08:16:46.743Z,0.83
2024-04-07T08:19:25.570Z,0.74
2024-04-07T08:22:04.597Z,0.93
2024-04-07T08:24:43.438Z,0.74
2024-04-07T08:27:24.016Z,0.65
2024-04-07T08:30:07.741Z,0.78
2024-04-07T08:32:41.747Z,0.69
2024-04-07T08:35:20.612Z,0.66
2024-04-07T08:37:55.906Z,0.74
2024-04-07T08:40:34.869Z,0.73
2024-04-07T08:43:10.964Z,0.70
2024-04-07T08:45:57.131Z,0.75
2024-04-07T08:48:32.324Z,0.57
2024-04-07T08:51:12.829Z,0.78
2024-04-07T08:53:48.142Z,0.79
2024-04-07T08:56:27.387Z,0.67
2024-04-07T08:59:03.794Z,0.68
2024-04-07T09:01:53.345Z,0.76
2024-04-07T09:04:34.568Z,0.88
2024-04-07T09:07:08.607Z,0.88
2024-04-07T09:09:48.036Z,0.75
2024-04-07T09:12:22.070Z,0.84
2024-04-07T09:15:00.930Z,0.85
2024-04-07T09:17:39.835Z,0.81
2024-04-07T09:20:25.472Z,0.85
2024-04-07T09:22:59.620Z,0.67
2024-04-07T09:25:39.176Z,0.87
2024-04-07T09:28:13.698Z,0.75
2024-04-07T09:30:53.430Z,0.72
2024-04-07T09:33:33.601Z,0.77
2024-04-07T09:36:13.580Z,0.81
2024-04-07T09:38:47.539Z,0.80
2024-04-07T09:41:29.766Z,0.88
2024-04-07T09:44:08.089Z,0.64
2024-04-07T09:46:48.206Z,0.78
2024-04-07T09:49:31.772Z,1.22
2024-04-07T09:52:12.414Z,0.90
2024-04-07T09:54:49.505Z,0.76
2024-04-07T09:57:28.345Z,0.75
2024-04-07T10:00:02.942Z,0.65
2024-04-07T10:02:43.258Z,0.95
2024-04-07T10:05:22.429Z,0.71
2024-04-07T10:08:02.738Z,0.67
2024-04-07T10:10:39.541Z,0.62
2024-04-07T10:13:20.766Z,0.66
2024-04-07T10:15:56.630Z,0.62
2024-04-07T10:18:38.466Z,0.66
2024-04-07T10:21:19.263Z,0.63
2024-04-07T10:24:00.221Z,0.80
2024-04-07T10:26:34.371Z,0.86
2024-04-07T10:29:15.342Z,0.71
2024-04-07T10:31:49.800Z,0.57
2024-04-07T10:34:28.682Z,0.72
2024-04-07T10:37:07.520Z,0.67
2024-04-07T10:39:57.429Z,0.72
2024-04-07T10:42:31.509Z,0.68
2024-04-07T10:45:11.318Z,0.74
2024-04-07T10:47:45.364Z,0.62
2024-04-07T10:50:25.454Z,0.97
2024-04-07T10:53:09.127Z,0.76
2024-04-07T10:55:47.978Z,0.73
2024-04-07T10:58:21.973Z,0.79
2024-04-07T11:01:01.131Z,0.60
2024-04-07T11:03:38.489Z,0.59
2024-04-07T11:06:18.170Z,0.75
2024-04-07T11:08:57.525Z,0.54
2024-04-07T11:11:37.124Z,0.76
2024-04-07T11:14:11.815Z,0.73
2024-04-07T11:16:50.697Z,0.58
2024-04-07T11:19:25.721Z,0.77
2024-04-07T11:22:04.727Z,0.55
2024-04-07T11:24:43.807Z,0.79
2024-04-07T11:27:22.676Z,0.74
2024-04-07T11:29:57.571Z,0.71
2024-04-07T11:32:36.524Z,0.68
2024-04-07T11:35:10.768Z,0.85
2024-04-07T11:37:49.658Z,0.79
2024-04-07T11:40:28.504Z,0.79
2024-04-07T11:43:07.397Z,0.67
2024-04-07T11:45:41.683Z,0.63
2024-04-07T11:48:20.564Z,0.81
2024-04-07T11:50:54.578Z,0.69
2024-04-07T11:53:35.361Z,0.84
2024-04-07T11:56:14.318Z,0.70
2024-04-07T11:58:53.215Z,0.63
2024-04-07T12:01:27.252Z,0.64
2024-04-07T12:04:06.121Z,0.56
2024-04-07T12:06:40.185Z,0.85
2024-04-07T12:09:19.120Z,0.80
2024-04-07T12:11:57.941Z,0.82
2024-04-07T12:14:36.762Z,0.69
2024-04-07T12:17:12.647Z,0.79
2024-04-07T12:19:52.585Z,0.80
2024-04-07T12:22:37.270Z,0.60
2024-04-07T12:25:16.080Z,0.69
2024-04-07T12:27:55.076Z,1.15
2024-04-07T12:30:33.875Z,0.89
2024-04-07T12:33:13.003Z,1.07
2024-04-07T12:35:47.087Z,0.89
2024-04-07T12:38:25.909Z,1.04
2024-04-07T12:40:59.882Z,0.89
2024-04-07T12:43:45.424Z,0.88
2024-04-07T12:46:20.807Z,1.09
2024-04-07T12:49:01.275Z,0.91
2024-04-07T12:51:37.653Z,0.75
2024-04-07T12:54:16.461Z,1.11
2024-04-07T12:56:50.754Z,0.99
2024-04-07T12:59:35.162Z,1.06
2024-04-07T13:02:09.839Z,1.04
2024-04-07T13:04:49.485Z,0.94
2024-04-07T13:07:23.474Z,0.86
2024-04-07T13:10:02.264Z,0.93
2024-04-07T13:12:36.452Z,0.92
2024-04-07T13:15:20.622Z,1.09
2024-04-07T13:17:54.746Z,1.17
2024-04-07T13:20:33.872Z,1.03
2024-04-07T13:23:07.882Z,0.83
2024-04-07T13:25:46.904Z,1.22
2024-04-07T13:28:21.438Z,0.82
2024-04-07T13:31:05.134Z,1.12
2024-04-07T13:33:39.164Z,0.82
2024-04-07T13:36:17.996Z,0.87
2024-04-07T13:38:51.945Z,0.95
2024-04-07T13:41:32.153Z,1.02
2024-04-07T13:44:06.173Z,1.02
2024-04-07T13:46:52.215Z,0.88
2024-04-07T13:49:26.569Z,0.93
2024-04-07T13:52:06.746Z,0.82
2024-04-07T13:54:40.799Z,0.88
2024-04-07T13:57:19.946Z,0.90
2024-04-07T13:59:53.882Z,1.20
2024-04-07T14:02:37.642Z,0.95
2024-04-07T14:05:11.664Z,0.76
2024-04-07T14:07:50.607Z,0.97
2024-04-07T14:10:24.674Z,0.94
2024-04-07T14:13:04.094Z,0.72
2024-04-07T14:15:38.103Z,1.02
2024-04-07T14:18:21.850Z,1.00
2024-04-07T14:20:55.834Z,1.00
2024-04-07T14:23:34.703Z,0.88
2024-04-07T14:26:08.734Z,1.02
2024-04-07T14:28:47.546Z,0.86
2024-04-07T14:31:21.633Z,0.93
2024-04-07T14:34:05.379Z,0.92
2024-04-07T14:36:39.404Z,0.74
2024-04-07T14:39:18.205Z,0.70
2024-04-07T14:41:53.170Z,0.93
2024-04-07T14:44:34.592Z,0.98
2024-04-07T14:47:08.662Z,0.85
2024-04-07T14:49:53.310Z,0.79
2024-04-07T14:52:27.323Z,0.88
2024-04-07T14:55:06.138Z,0.78
2024-04-07T14:57:40.119Z,0.79
2024-04-07T15:00:20.438Z,0.75
2024-04-07T15:02:54.733Z,0.93
2024-04-07T15:05:38.406Z,1.00
2024-04-07T15:08:14.348Z,0.76
2024-04-07T15:11:05.909Z,0.72
2024-04-07T15:13:39.959Z,1.11
2024-04-07T15:16:18.874Z,0.88
2024-04-07T15:18:58.287Z,1.25
2024-04-07T15:21:37.514Z,1.52
2024-04-07T15:24:16.977Z,1.15
2024-04-07T15:26:50.969Z,0.64
2024-04-07T15:29:30.012Z,0.83
2024-04-07T15:32:03.985Z,0.81
2024-04-07T15:34:42.856Z,0.65
2024-04-07T15:37:21.992Z,0.88
2024-04-07T15:40:00.892Z,0.83
2024-04-07T15:42:34.908Z,0.94
2024-04-07T15:45:14.293Z,0.75
2024-04-07T15:47:48.291Z,0.89
2024-04-07T15:50:27.143Z,0.88
2024-04-07T15:53:11.016Z,0.76
2024-04-07T15:55:45.148Z,0.92
2024-04-07T15:58:24.159Z,0.98
2024-04-07T16:00:58.233Z,0.98
2024-04-07T16:03:37.038Z,0.89
2024-04-07T16:06:11.154Z,0.99
2024-04-07T16:08:55.702Z,0.83
2024-04-07T16:11:30.038Z,0.97
2024-04-07T16:14:09.262Z,1.29
2024-04-07T16:16:43.258Z,0.94
2024-04-07T16:19:22.075Z,0.86
2024-04-07T16:21:56.039Z,1.05
2024-04-07T16:24:39.742Z,0.82
2024-04-07T16:27:13.730Z,1.09
2024-04-07T16:29:52.706Z,1.09
2024-04-07T16:32:26.721Z,0.99
2024-04-07T16:35:05.686Z,0.85
2024-04-07T16:37:39.818Z,0.93
2024-04-07T16:40:23.805Z,0.73
2024-04-07T16:42:57.879Z,1.08
2024-04-07T16:45:36.697Z,0.84
2024-04-07T16:48:13.259Z,0.80
2024-04-07T16:51:02.260Z,0.76
2024-04-07T16:53:36.243Z,1.01
2024-04-07T16:56:20.286Z,1.07
2024-04-07T16:58:54.244Z,0.83
2024-04-07T17:01:33.258Z,0.73
2024-04-07T17:04:07.364Z,0.69
2024-04-07T17:06:47.430Z,1.03
2024-04-07T17:09:21.441Z,1.15
2024-04-07T17:12:05.159Z,0.98
2024-04-07T17:14:39.160Z,0.84
2024-04-07T17:17:19.872Z,0.83
2024-04-07T17:19:54.365Z,0.89
2024-04-07T17:22:37.035Z,1.07
2024-04-07T17:25:11.099Z,0.84
2024-04-07T17:27:54.809Z,1.21
2024-04-07T17:30:28.819Z,1.05
2024-04-07T17:33:07.776Z,1.04
2024-04-07T17:35:44.044Z,1.07
2024-04-07T17:38:22.919Z,1.14
2024-04-07T17:40:57.592Z,0.84
2024-04-07T17:43:41.303Z,0.97
2024-04-07T17:46:16.491Z,1.03
2024-04-07T17:48:55.319Z,0.87
2024-04-07T17:51:30.349Z,1.15
2024-04-07T17:54:09.281Z,1.00
2024-04-07T17:56:43.314Z,1.41
2024-04-07T17:59:29.473Z,1.10
2024-04-07T18:02:03.516Z,0.90
2024-04-07T18:04:42.381Z,1.01
2024-04-07T18:07:16.702Z,1.03
2024-04-07T18:09:56.041Z,1.14
2024-04-07T18:12:30.155Z,0.97
2024-04-07T18:15:13.987Z,0.86
2024-04-07T18:17:49.728Z,0.97
2024-04-07T18:20:28.537Z,0.99
2024-04-07T18:23:02.656Z,0.81
2024-04-07T18:25:41.539Z,1.03
2024-04-07T18:28:15.563Z,1.12
2024-04-07T18:30:59.350Z,1.00
2024-04-07T18:33:37.767Z,0.99
2024-04-07T18:36:16.785Z,0.83
2024-04-07T18:38:50.749Z,1.18
2024-04-07T18:41:29.680Z,0.82
2024-04-07T18:44:03.719Z,1.12
2024-04-07T18:46:47.533Z,1.18
2024-04-07T18:49:21.501Z,1.08
2024-04-07T18:52:00.402Z,1.03
2024-04-07T18:54:34.409Z,1.19
2024-04-07T18:57:13.269Z,1.23
2024-04-07T18:59:47.236Z,1.21
2024-04-07T19:02:31.008Z,1.19
2024-04-07T19:05:06.997Z,1.07
2024-04-07T19:07:46.481Z,0.94
2024-04-07T19:10:20.571Z,0.96
2024-04-07T19:12:59.499Z,1.09
2024-04-07T19:15:33.480Z,0.95
2024-04-07T19:18:17.375Z,1.24
2024-04-07T19:21:00.958Z,1.00
2024-04-07T19:23:40.582Z,1.22
2024-04-07T19:26:14.776Z,1.17
2024-04-07T19:28:54.264Z,1.48
2024-04-07T19:31:28.390Z,1.37
2024-04-07T19:34:12.053Z,1.48
2024-04-07T19:36:46.703Z,1.35
2024-04-07T19:39:25.649Z,1.45
2024-04-07T19:42:00.504Z,1.04
2024-04-07T19:44:39.527Z,1.19
2024-04-07T19:47:13.822Z,1.08
2024-04-07T19:49:57.540Z,1.09
2024-04-07T19:52:31.498Z,1.07
2024-04-07T19:55:10.793Z,1.07
2024-04-07T19:57:47.291Z,0.95
2024-04-07T20:00:28.228Z,1.03
2024-04-07T20:03:02.330Z,1.13
2024-04-07T20:05:52.391Z,1.08
2024-04-07T20:08:27.192Z,1.00
2024-04-07T20:11:08.580Z,1.07
2024-04-07T20:13:42.735Z,1.07
2024-04-07T20:16:21.633Z,1.26
2024-04-07T20:18:55.601Z,1.07
2024-04-07T20:21:39.303Z,1.30
2024-04-07T20:24:18.125Z,1.12
2024-04-07T20:26:52.140Z,1.08
2024-04-07T20:29:31.035Z,1.04
2024-04-07T20:32:05.617Z,0.96
2024-04-07T20:34:44.870Z,1.15
2024-04-07T20:37:23.703Z,1.12
2024-04-07T20:40:02.578Z,1.16
2024-04-07T20:42:41.429Z,1.19
2024-04-07T20:45:15.507Z,1.01
2024-04-07T20:47:54.291Z,0.95
2024-04-07T20:50:31.271Z,1.12
2024-04-07T20:53:14.998Z,1.24
2024-04-07T20:55:48.997Z,1.06
2024-04-07T20:58:27.829Z,1.09
2024-04-07T21:01:01.880Z,1.12
2024-04-07T21:03:40.725Z,1.05
2024-04-07T21:06:14.771Z,1.19
2024-04-07T21:08:59.387Z,1.11
2024-04-07T21:11:33.644Z,1.13
2024-04-07T21:14:12.474Z,1.07
2024-04-07T21:16:46.505Z,1.04
2024-04-07T21:19:25.371Z,1.12
2024-04-07T21:21:59.424Z,1.21
2024-04-07T21:24:43.184Z,1.10
2024-04-07T21:27:17.934Z,1.29
2024-04-07T21:29:56.965Z,1.21
2024-04-07T21:32:31.003Z,1.02
2024-04-07T21:35:11.149Z,0.96
2024-04-07T21:37:45.127Z,0.97
2024-04-07T21:40:28.885Z,1.02
2024-04-07T21:43:02.869Z,1.04
2024-04-07T21:45:41.949Z,1.00
2024-04-07T21:48:15.990Z,1.08
2024-04-07T21:50:54.970Z,1.19
2024-04-07T21:53:29.678Z,0.96
2024-04-07T21:56:14.337Z,1.11
2024-04-07T21:58:48.391Z,0.86
2024-04-07T22:01:27.190Z,0.92
2024-04-07T22:04:06.026Z,1.06
2024-04-07T22:06:40.073Z,0.98
2024-04-07T22:09:19.101Z,1.05
2024-04-07T22:11:57.934Z,0.91
2024-04-07T22:14:36.832Z,0.98
2024-04-07T22:17:10.841Z,1.10
2024-04-07T22:19:49.642Z,1.17
2024-04-07T22:22:23.684Z,1.00
2024-04-07T22:25:02.510Z,1.00
2024-04-07T22:27:41.555Z,0.98
2024-04-07T22:30:21.458Z,0.99
2024-04-07T22:32:56.758Z,1.13
2024-04-07T22:35:35.670Z,0.86
2024-04-07T22:38:14.610Z,0.89
2024-04-07T22:40:48.640Z,0.99
2024-04-07T22:43:32.353Z,1.00
2024-04-07T22:46:06.872Z,1.09
2024-04-07T22:48:45.710Z,1.01
2024-04-07T22:51:19.702Z,1.07
2024-04-07T22:54:00.152Z,1.08
2024-04-07T22:56:34.256Z,1.18
2024-04-07T22:59:17.925Z,0.92
2024-04-07T23:01:51.959Z,1.06
2024-04-07T23:04:30.815Z,1.08
2024-04-07T23:07:04.823Z,1.34
2024-04-07T23:09:43.686Z,1.01
2024-04-07T23:12:17.803Z,1.13
2024-04-07T23:15:01.981Z,1.02
2024-04-07T23:17:36.049Z,1.15
2024-04-07T23:20:16.065Z,1.10
2024-04-07T23:22:50.216Z,1.08
2024-04-07T23:25:29.270Z,1.27
2024-04-07T23:28:05.322Z,1.09
2024-04-07T23:30:49.034Z,1.18
2024-04-07T23:33:23.066Z,1.32
2024-04-07T23:36:02.803Z,1.08
2024-04-07T23:38:42.337Z,1.04
2024-04-07T23:41:16.373Z,1.03
2024-04-07T23:43:55.379Z,1.02
2024-04-07T23:46:34.232Z,1.10
2024-04-07T23:49:13.045Z,0.89
2024-04-07T23:51:47.245Z,0.96
2024-04-07T23:54:26.056Z,1.12
2024-04-07T23:57:00.222Z,1.07
2024-04-07T23:59:39.112Z,1.14
